sensor_id;sensor_type;location;lat;lon;timestamp;P1;durP1;ratioP1;P2;durP2;ratioP2
16906;SDS011;8570;52.380;4.654;2022-12-11T00:03:13;0.70;;;0.70;;
16906;SDS011;8570;52.380;4.654;2022-12-11T00:08:19;0.10;;;0.10;;
16906;SDS011;8570;52.380;4.654;2022-12-11T00:13:21;0.00;;;0.00;;
16906;SDS011;8570;52.380;4.654;2022-12-11T00:18:23;0.30;;;0.30;;
16906;SDS011;8570;52.380;4.654;2022-12-11T00:23:26;0.27;;;0.27;;
16906;SDS011;8570;52.380;4.654;2022-12-11T00:28:28;0.30;;;0.30;;
16906;SDS011;8570;52.380;4.654;2022-12-11T00:33:30;0.20;;;0.20;;
16906;SDS011;8570;52.380;4.654;2022-12-11T00:38:33;0.20;;;0.20;;
16906;SDS011;8570;52.380;4.654;2022-12-11T00:43:35;0.10;;;0.10;;
16906;SDS011;8570;52.380;4.654;2022-12-11T00:48:37;0.10;;;0.10;;
16906;SDS011;8570;52.380;4.654;2022-12-11T00:53:40;1.83;;;0.80;;
16906;SDS011;8570;52.380;4.654;2022-12-11T00:58:43;0.10;;;0.10;;
16906;SDS011;8570;52.380;4.654;2022-12-11T01:03:45;0.30;;;0.30;;
16906;SDS011;8570;52.380;4.654;2022-12-11T01:08:49;0.00;;;0.00;;
16906;SDS011;8570;52.380;4.654;2022-12-11T01:14:12;0.00;;;0.00;;
16906;SDS011;8570;52.380;4.654;2022-12-11T01:19:14;0.10;;;0.10;;
16906;SDS011;8570;52.380;4.654;2022-12-11T01:24:17;0.43;;;0.43;;
16906;SDS011;8570;52.380;4.654;2022-12-11T01:29:19;0.40;;;0.40;;
16906;SDS011;8570;52.380;4.654;2022-12-11T01:34:21;0.00;;;0.00;;
16906;SDS011;8570;52.380;4.654;2022-12-11T01:39:24;0.10;;;0.10;;
16906;SDS011;8570;52.380;4.654;2022-12-11T01:50:17;0.10;;;0.10;;
16906;SDS011;8570;52.380;4.654;2022-12-11T01:55:21;0.10;;;0.10;;
16906;SDS011;8570;52.380;4.654;2022-12-11T02:00:23;0.03;;;0.03;;
16906;SDS011;8570;52.380;4.654;2022-12-11T02:05:25;0.10;;;0.10;;
16906;SDS011;8570;52.380;4.654;2022-12-11T02:10:30;0.10;;;0.10;;
16906;SDS011;8570;52.380;4.654;2022-12-11T02:15:40;0.10;;;0.10;;
16906;SDS011;8570;52.380;4.654;2022-12-11T02:20:50;0.10;;;0.10;;
16906;SDS011;8570;52.380;4.654;2022-12-11T02:26:01;0.10;;;0.10;;
16906;SDS011;8570;52.380;4.654;2022-12-11T02:31:18;0.03;;;0.03;;
16906;SDS011;8570;52.380;4.654;2022-12-11T02:36:27;0.10;;;0.10;;
16906;SDS011;8570;52.380;4.654;2022-12-11T02:41:32;0.20;;;0.20;;
16906;SDS011;8570;52.380;4.654;2022-12-11T02:46:36;0.10;;;0.10;;
16906;SDS011;8570;52.380;4.654;2022-12-11T02:51:40;0.10;;;0.10;;
16906;SDS011;8570;52.380;4.654;2022-12-11T02:56:44;0.30;;;0.30;;
16906;SDS011;8570;52.380;4.654;2022-12-11T03:01:52;0.00;;;0.00;;
16906;SDS011;8570;52.380;4.654;2022-12-11T03:06:55;0.83;;;0.83;;
16906;SDS011;8570;52.380;4.654;2022-12-11T03:12:11;0.17;;;0.17;;
16906;SDS011;8570;52.380;4.654;2022-12-11T03:17:18;0.00;;;0.00;;
16906;SDS011;8570;52.380;4.654;2022-12-11T03:22:23;0.07;;;0.07;;
16906;SDS011;8570;52.380;4.654;2022-12-11T03:27:35;0.20;;;0.20;;
16906;SDS011;8570;52.380;4.654;2022-12-11T03:32:45;0.00;;;0.00;;
16906;SDS011;8570;52.380;4.654;2022-12-11T03:37:50;0.10;;;0.10;;
16906;SDS011;8570;52.380;4.654;2022-12-11T03:42:54;0.00;;;0.00;;
16906;SDS011;8570;52.380;4.654;2022-12-11T03:47:59;0.20;;;0.20;;
16906;SDS011;8570;52.380;4.654;2022-12-11T03:53:02;0.10;;;0.10;;
16906;SDS011;8570;52.380;4.654;2022-12-11T03:58:05;0.10;;;0.10;;
16906;SDS011;8570;52.380;4.654;2022-12-11T04:03:09;0.10;;;0.10;;
16906;SDS011;8570;52.380;4.654;2022-12-11T04:08:13;0.10;;;0.10;;
16906;SDS011;8570;52.380;4.654;2022-12-11T04:13:16;0.00;;;0.00;;
16906;SDS011;8570;52.380;4.654;2022-12-11T04:18:19;0.30;;;0.30;;
16906;SDS011;8570;52.380;4.654;2022-12-11T04:23:38;0.10;;;0.10;;
16906;SDS011;8570;52.380;4.654;2022-12-11T04:29:03;0.20;;;0.20;;
16906;SDS011;8570;52.380;4.654;2022-12-11T04:34:07;0.10;;;0.10;;
16906;SDS011;8570;52.380;4.654;2022-12-11T04:39:09;0.10;;;0.10;;
16906;SDS011;8570;52.380;4.654;2022-12-11T04:44:11;0.10;;;0.10;;
16906;SDS011;8570;52.380;4.654;2022-12-11T04:49:14;0.10;;;0.10;;
16906;SDS011;8570;52.380;4.654;2022-12-11T04:54:16;0.10;;;0.10;;
16906;SDS011;8570;52.380;4.654;2022-12-11T04:59:18;4.00;;;1.17;;
16906;SDS011;8570;52.380;4.654;2022-12-11T05:04:21;0.00;;;0.00;;
16906;SDS011;8570;52.380;4.654;2022-12-11T05:09:23;0.10;;;0.10;;
16906;SDS011;8570;52.380;4.654;2022-12-11T05:14:25;0.00;;;0.00;;
16906;SDS011;8570;52.380;4.654;2022-12-11T05:19:32;0.40;;;0.40;;
16906;SDS011;8570;52.380;4.654;2022-12-11T05:24:34;0.10;;;0.10;;
16906;SDS011;8570;52.380;4.654;2022-12-11T05:29:36;0.10;;;0.10;;
16906;SDS011;8570;52.380;4.654;2022-12-11T05:34:39;0.50;;;0.50;;
16906;SDS011;8570;52.380;4.654;2022-12-11T05:39:41;0.10;;;0.10;;
16906;SDS011;8570;52.380;4.654;2022-12-11T05:44:43;0.10;;;0.10;;
16906;SDS011;8570;52.380;4.654;2022-12-11T05:49:46;0.07;;;0.07;;
16906;SDS011;8570;52.380;4.654;2022-12-11T05:54:48;0.20;;;0.13;;
16906;SDS011;8570;52.380;4.654;2022-12-11T05:59:50;0.10;;;0.10;;
16906;SDS011;8570;52.380;4.654;2022-12-11T06:04:54;0.10;;;0.10;;
16906;SDS011;8570;52.380;4.654;2022-12-11T06:09:56;0.20;;;0.20;;
16906;SDS011;8570;52.380;4.654;2022-12-11T06:14:58;0.10;;;0.10;;
16906;SDS011;8570;52.380;4.654;2022-12-11T06:20:01;0.00;;;0.00;;
16906;SDS011;8570;52.380;4.654;2022-12-11T06:25:03;0.27;;;0.27;;
16906;SDS011;8570;52.380;4.654;2022-12-11T06:30:06;0.57;;;0.57;;
16906;SDS011;8570;52.380;4.654;2022-12-11T06:35:10;0.10;;;0.10;;
16906;SDS011;8570;52.380;4.654;2022-12-11T06:40:12;0.20;;;0.20;;
16906;SDS011;8570;52.380;4.654;2022-12-11T06:45:15;0.00;;;0.00;;
16906;SDS011;8570;52.380;4.654;2022-12-11T06:50:18;0.10;;;0.10;;
16906;SDS011;8570;52.380;4.654;2022-12-11T06:55:20;0.00;;;0.00;;
16906;SDS011;8570;52.380;4.654;2022-12-11T07:00:22;0.00;;;0.00;;
16906;SDS011;8570;52.380;4.654;2022-12-11T07:05:25;0.00;;;0.00;;
16906;SDS011;8570;52.380;4.654;2022-12-11T07:10:27;0.00;;;0.00;;
16906;SDS011;8570;52.380;4.654;2022-12-11T07:15:29;0.00;;;0.00;;
16906;SDS011;8570;52.380;4.654;2022-12-11T07:20:33;0.20;;;0.20;;
16906;SDS011;8570;52.380;4.654;2022-12-11T07:25:35;0.40;;;0.40;;
16906;SDS011;8570;52.380;4.654;2022-12-11T07:30:37;0.00;;;0.00;;
16906;SDS011;8570;52.380;4.654;2022-12-11T07:35:41;0.10;;;0.10;;
16906;SDS011;8570;52.380;4.654;2022-12-11T07:40:43;0.00;;;0.00;;
16906;SDS011;8570;52.380;4.654;2022-12-11T07:45:44;0.00;;;0.00;;
16906;SDS011;8570;52.380;4.654;2022-12-11T07:50:48;0.00;;;0.00;;
16906;SDS011;8570;52.380;4.654;2022-12-11T07:55:50;0.10;;;0.10;;
16906;SDS011;8570;52.380;4.654;2022-12-11T08:00:51;0.00;;;0.00;;
16906;SDS011;8570;52.380;4.654;2022-12-11T08:05:55;0.30;;;0.30;;
16906;SDS011;8570;52.380;4.654;2022-12-11T08:10:59;0.30;;;0.30;;
16906;SDS011;8570;52.380;4.654;2022-12-11T08:16:02;0.00;;;0.00;;
16906;SDS011;8570;52.380;4.654;2022-12-11T08:21:06;0.20;;;0.20;;
16906;SDS011;8570;52.380;4.654;2022-12-11T08:26:09;0.30;;;0.30;;
16906;SDS011;8570;52.380;4.654;2022-12-11T08:31:13;0.07;;;0.07;;
16906;SDS011;8570;52.380;4.654;2022-12-11T08:36:18;0.10;;;0.10;;
16906;SDS011;8570;52.380;4.654;2022-12-11T08:41:22;0.10;;;0.10;;
16906;SDS011;8570;52.380;4.654;2022-12-11T08:46:26;0.30;;;0.30;;
16906;SDS011;8570;52.380;4.654;2022-12-11T08:51:31;0.10;;;0.10;;
16906;SDS011;8570;52.380;4.654;2022-12-11T08:56:32;0.57;;;0.57;;
16906;SDS011;8570;52.380;4.654;2022-12-11T09:01:34;0.10;;;0.10;;
16906;SDS011;8570;52.380;4.654;2022-12-11T09:06:37;0.20;;;0.20;;
16906;SDS011;8570;52.380;4.654;2022-12-11T09:11:40;0.00;;;0.00;;
16906;SDS011;8570;52.380;4.654;2022-12-11T09:16:42;0.00;;;0.00;;
16906;SDS011;8570;52.380;4.654;2022-12-11T09:21:45;0.20;;;0.20;;
16906;SDS011;8570;52.380;4.654;2022-12-11T09:26:47;0.00;;;0.00;;
16906;SDS011;8570;52.380;4.654;2022-12-11T09:31:49;0.10;;;0.10;;
16906;SDS011;8570;52.380;4.654;2022-12-11T09:36:52;0.00;;;0.00;;
16906;SDS011;8570;52.380;4.654;2022-12-11T09:41:54;0.10;;;0.10;;
16906;SDS011;8570;52.380;4.654;2022-12-11T09:47:08;0.00;;;0.00;;
16906;SDS011;8570;52.380;4.654;2022-12-11T09:52:21;0.40;;;0.30;;
16906;SDS011;8570;52.380;4.654;2022-12-11T09:57:34;0.10;;;0.10;;
16906;SDS011;8570;52.380;4.654;2022-12-11T10:02:49;0.00;;;0.00;;
16906;SDS011;8570;52.380;4.654;2022-12-11T10:08:12;0.43;;;0.40;;
16906;SDS011;8570;52.380;4.654;2022-12-11T10:13:22;0.00;;;0.00;;
16906;SDS011;8570;52.380;4.654;2022-12-11T10:18:29;0.00;;;0.00;;
16906;SDS011;8570;52.380;4.654;2022-12-11T10:23:35;0.10;;;0.10;;
16906;SDS011;8570;52.380;4.654;2022-12-11T10:28:43;0.10;;;0.10;;
16906;SDS011;8570;52.380;4.654;2022-12-11T10:33:49;0.10;;;0.10;;
16906;SDS011;8570;52.380;4.654;2022-12-11T10:39:01;0.00;;;0.00;;
16906;SDS011;8570;52.380;4.654;2022-12-11T10:54:59;0.10;;;0.10;;
16906;SDS011;8570;52.380;4.654;2022-12-11T11:00:04;0.00;;;0.00;;
16906;SDS011;8570;52.380;4.654;2022-12-11T11:05:10;0.20;;;0.20;;
16906;SDS011;8570;52.380;4.654;2022-12-11T11:10:16;0.10;;;0.10;;
16906;SDS011;8570;52.380;4.654;2022-12-11T11:15:23;0.10;;;0.10;;
16906;SDS011;8570;52.380;4.654;2022-12-11T11:20:28;0.17;;;0.17;;
16906;SDS011;8570;52.380;4.654;2022-12-11T11:25:32;0.10;;;0.10;;
16906;SDS011;8570;52.380;4.654;2022-12-11T11:30:34;0.13;;;0.13;;
16906;SDS011;8570;52.380;4.654;2022-12-11T11:35:39;0.10;;;0.10;;
16906;SDS011;8570;52.380;4.654;2022-12-11T11:40:56;0.10;;;0.10;;
16906;SDS011;8570;52.380;4.654;2022-12-11T11:46:05;0.00;;;0.00;;
16906;SDS011;8570;52.380;4.654;2022-12-11T11:51:13;0.00;;;0.00;;
16906;SDS011;8570;52.380;4.654;2022-12-11T11:56:21;0.10;;;0.10;;
16906;SDS011;8570;52.380;4.654;2022-12-11T12:01:26;0.00;;;0.00;;
16906;SDS011;8570;52.380;4.654;2022-12-11T12:06:35;0.00;;;0.00;;
16906;SDS011;8570;52.380;4.654;2022-12-11T12:11:48;0.07;;;0.07;;
16906;SDS011;8570;52.380;4.654;2022-12-11T12:16:58;0.10;;;0.10;;
16906;SDS011;8570;52.380;4.654;2022-12-11T12:22:08;0.10;;;0.10;;
16906;SDS011;8570;52.380;4.654;2022-12-11T12:27:26;0.27;;;0.27;;
16906;SDS011;8570;52.380;4.654;2022-12-11T12:32:35;0.20;;;0.20;;
16906;SDS011;8570;52.380;4.654;2022-12-11T12:43:44;0.00;;;0.00;;
16906;SDS011;8570;52.380;4.654;2022-12-11T12:49:11;2.07;;;0.93;;
16906;SDS011;8570;52.380;4.654;2022-12-11T12:54:18;0.00;;;0.00;;
16906;SDS011;8570;52.380;4.654;2022-12-11T12:59:38;0.10;;;0.10;;
16906;SDS011;8570;52.380;4.654;2022-12-11T13:05:17;0.00;;;0.00;;
16906;SDS011;8570;52.380;4.654;2022-12-11T13:16:26;0.00;;;0.00;;
16906;SDS011;8570;52.380;4.654;2022-12-11T13:21:36;0.07;;;0.07;;
16906;SDS011;8570;52.380;4.654;2022-12-11T13:26:40;0.00;;;0.00;;
16906;SDS011;8570;52.380;4.654;2022-12-11T13:31:44;0.10;;;0.10;;
16906;SDS011;8570;52.380;4.654;2022-12-11T13:36:57;0.03;;;0.03;;
16906;SDS011;8570;52.380;4.654;2022-12-11T13:42:05;0.50;;;0.50;;
16906;SDS011;8570;52.380;4.654;2022-12-11T13:47:20;0.07;;;0.07;;
16906;SDS011;8570;52.380;4.654;2022-12-11T13:52:24;0.00;;;0.00;;
16906;SDS011;8570;52.380;4.654;2022-12-11T13:57:33;1.70;;;0.87;;
16906;SDS011;8570;52.380;4.654;2022-12-11T14:02:47;0.10;;;0.10;;
16906;SDS011;8570;52.380;4.654;2022-12-11T14:07:52;0.00;;;0.00;;
16906;SDS011;8570;52.380;4.654;2022-12-11T14:12:58;0.37;;;0.37;;
16906;SDS011;8570;52.380;4.654;2022-12-11T14:18:04;0.10;;;0.10;;
16906;SDS011;8570;52.380;4.654;2022-12-11T14:23:07;2.97;;;0.30;;
16906;SDS011;8570;52.380;4.654;2022-12-11T14:28:16;0.00;;;0.00;;
16906;SDS011;8570;52.380;4.654;2022-12-11T14:33:20;0.10;;;0.10;;
16906;SDS011;8570;52.380;4.654;2022-12-11T14:38:28;0.07;;;0.07;;
16906;SDS011;8570;52.380;4.654;2022-12-11T14:43:43;0.10;;;0.10;;
16906;SDS011;8570;52.380;4.654;2022-12-11T15:00:56;0.10;;;0.10;;
16906;SDS011;8570;52.380;4.654;2022-12-11T15:06:00;0.00;;;0.00;;
16906;SDS011;8570;52.380;4.654;2022-12-11T15:11:03;0.10;;;0.10;;
16906;SDS011;8570;52.380;4.654;2022-12-11T15:16:10;0.30;;;0.30;;
16906;SDS011;8570;52.380;4.654;2022-12-11T15:21:15;0.77;;;0.77;;
16906;SDS011;8570;52.380;4.654;2022-12-11T15:26:18;0.10;;;0.10;;
16906;SDS011;8570;52.380;4.654;2022-12-11T15:31:25;0.10;;;0.10;;
16906;SDS011;8570;52.380;4.654;2022-12-11T15:36:30;0.10;;;0.10;;
16906;SDS011;8570;52.380;4.654;2022-12-11T15:41:35;0.10;;;0.10;;
16906;SDS011;8570;52.380;4.654;2022-12-11T15:46:39;0.10;;;0.10;;
16906;SDS011;8570;52.380;4.654;2022-12-11T15:51:41;0.23;;;0.23;;
16906;SDS011;8570;52.380;4.654;2022-12-11T15:56:42;0.10;;;0.10;;
16906;SDS011;8570;52.380;4.654;2022-12-11T16:01:46;0.27;;;0.27;;
16906;SDS011;8570;52.380;4.654;2022-12-11T16:06:48;0.73;;;0.63;;
16906;SDS011;8570;52.380;4.654;2022-12-11T16:11:50;0.10;;;0.10;;
16906;SDS011;8570;52.380;4.654;2022-12-11T16:16:55;0.00;;;0.00;;
16906;SDS011;8570;52.380;4.654;2022-12-11T16:21:57;0.03;;;0.03;;
16906;SDS011;8570;52.380;4.654;2022-12-11T16:26:59;0.10;;;0.10;;
16906;SDS011;8570;52.380;4.654;2022-12-11T16:32:03;0.23;;;0.23;;
16906;SDS011;8570;52.380;4.654;2022-12-11T16:37:07;0.20;;;0.20;;
16906;SDS011;8570;52.380;4.654;2022-12-11T16:42:10;0.03;;;0.03;;
16906;SDS011;8570;52.380;4.654;2022-12-11T16:47:13;0.00;;;0.00;;
16906;SDS011;8570;52.380;4.654;2022-12-11T16:52:15;0.00;;;0.00;;
16906;SDS011;8570;52.380;4.654;2022-12-11T16:57:22;0.10;;;0.10;;
16906;SDS011;8570;52.380;4.654;2022-12-11T17:02:26;0.10;;;0.10;;
16906;SDS011;8570;52.380;4.654;2022-12-11T17:07:29;0.00;;;0.00;;
16906;SDS011;8570;52.380;4.654;2022-12-11T17:12:31;0.20;;;0.20;;
16906;SDS011;8570;52.380;4.654;2022-12-11T17:17:34;0.10;;;0.10;;
16906;SDS011;8570;52.380;4.654;2022-12-11T17:22:38;0.00;;;0.00;;
16906;SDS011;8570;52.380;4.654;2022-12-11T17:27:40;1.90;;;0.67;;
16906;SDS011;8570;52.380;4.654;2022-12-11T17:32:46;0.00;;;0.00;;
16906;SDS011;8570;52.380;4.654;2022-12-11T17:37:49;0.10;;;0.10;;
16906;SDS011;8570;52.380;4.654;2022-12-11T17:42:51;0.10;;;0.10;;
16906;SDS011;8570;52.380;4.654;2022-12-11T17:47:54;0.33;;;0.33;;
16906;SDS011;8570;52.380;4.654;2022-12-11T17:52:56;0.40;;;0.40;;
16906;SDS011;8570;52.380;4.654;2022-12-11T17:57:58;0.10;;;0.10;;
16906;SDS011;8570;52.380;4.654;2022-12-11T18:03:02;0.30;;;0.30;;
16906;SDS011;8570;52.380;4.654;2022-12-11T18:08:04;0.10;;;0.10;;
16906;SDS011;8570;52.380;4.654;2022-12-11T18:13:06;0.10;;;0.10;;
16906;SDS011;8570;52.380;4.654;2022-12-11T18:18:09;0.00;;;0.00;;
16906;SDS011;8570;52.380;4.654;2022-12-11T18:23:11;0.30;;;0.30;;
16906;SDS011;8570;52.380;4.654;2022-12-11T18:28:13;0.07;;;0.07;;
16906;SDS011;8570;52.380;4.654;2022-12-11T18:33:16;0.00;;;0.00;;
16906;SDS011;8570;52.380;4.654;2022-12-11T18:38:18;0.10;;;0.10;;
16906;SDS011;8570;52.380;4.654;2022-12-11T18:43:20;0.10;;;0.10;;
16906;SDS011;8570;52.380;4.654;2022-12-11T18:48:23;0.10;;;0.10;;
16906;SDS011;8570;52.380;4.654;2022-12-11T18:53:25;0.00;;;0.00;;
16906;SDS011;8570;52.380;4.654;2022-12-11T18:58:27;0.23;;;0.23;;
16906;SDS011;8570;52.380;4.654;2022-12-11T19:03:30;0.10;;;0.10;;
16906;SDS011;8570;52.380;4.654;2022-12-11T19:08:32;0.10;;;0.10;;
16906;SDS011;8570;52.380;4.654;2022-12-11T19:13:36;0.00;;;0.00;;
16906;SDS011;8570;52.380;4.654;2022-12-11T19:18:39;53.40;;;27.67;;
16906;SDS011;8570;52.380;4.654;2022-12-11T19:23:42;45.83;;;26.77;;
16906;SDS011;8570;52.380;4.654;2022-12-11T19:28:45;41.30;;;25.20;;
16906;SDS011;8570;52.380;4.654;2022-12-11T19:33:49;42.13;;;25.30;;
16906;SDS011;8570;52.380;4.654;2022-12-11T19:38:51;46.40;;;26.93;;
16906;SDS011;8570;52.380;4.654;2022-12-11T19:43:57;46.53;;;26.23;;
16906;SDS011;8570;52.380;4.654;2022-12-11T19:49:01;46.30;;;25.37;;
16906;SDS011;8570;52.380;4.654;2022-12-11T19:54:04;43.90;;;25.07;;
16906;SDS011;8570;52.380;4.654;2022-12-11T19:59:08;45.90;;;27.43;;
16906;SDS011;8570;52.380;4.654;2022-12-11T20:04:14;37.37;;;22.80;;
16906;SDS011;8570;52.380;4.654;2022-12-11T20:09:30;39.33;;;24.70;;
16906;SDS011;8570;52.380;4.654;2022-12-11T20:14:32;39.33;;;23.93;;
16906;SDS011;8570;52.380;4.654;2022-12-11T20:19:36;38.50;;;22.87;;
16906;SDS011;8570;52.380;4.654;2022-12-11T20:24:38;44.77;;;25.63;;
16906;SDS011;8570;52.380;4.654;2022-12-11T20:29:40;38.20;;;24.83;;
16906;SDS011;8570;52.380;4.654;2022-12-11T20:34:46;37.00;;;22.20;;
16906;SDS011;8570;52.380;4.654;2022-12-11T20:39:48;33.23;;;21.30;;
16906;SDS011;8570;52.380;4.654;2022-12-11T20:44:52;34.23;;;22.23;;
16906;SDS011;8570;52.380;4.654;2022-12-11T20:49:55;37.37;;;21.70;;
16906;SDS011;8570;52.380;4.654;2022-12-11T20:54:57;35.63;;;22.00;;
16906;SDS011;8570;52.380;4.654;2022-12-11T20:59:59;35.10;;;21.07;;
16906;SDS011;8570;52.380;4.654;2022-12-11T21:05:03;34.93;;;21.67;;
16906;SDS011;8570;52.380;4.654;2022-12-11T21:10:11;31.30;;;21.17;;
16906;SDS011;8570;52.380;4.654;2022-12-11T21:15:13;34.23;;;22.30;;
16906;SDS011;8570;52.380;4.654;2022-12-11T21:20:18;38.97;;;23.30;;
16906;SDS011;8570;52.380;4.654;2022-12-11T21:25:20;38.57;;;24.17;;
16906;SDS011;8570;52.380;4.654;2022-12-11T21:30:22;36.97;;;23.23;;
16906;SDS011;8570;52.380;4.654;2022-12-11T21:35:25;38.47;;;23.50;;
16906;SDS011;8570;52.380;4.654;2022-12-11T21:40:28;37.60;;;23.27;;
16906;SDS011;8570;52.380;4.654;2022-12-11T21:45:33;40.93;;;24.43;;
16906;SDS011;8570;52.380;4.654;2022-12-11T21:50:38;38.70;;;23.33;;
16906;SDS011;8570;52.380;4.654;2022-12-11T21:55:40;36.33;;;20.97;;
16906;SDS011;8570;52.380;4.654;2022-12-11T22:00:43;36.67;;;21.17;;
16906;SDS011;8570;52.380;4.654;2022-12-11T22:05:47;38.60;;;22.40;;
16906;SDS011;8570;52.380;4.654;2022-12-11T22:10:49;34.60;;;22.97;;
16906;SDS011;8570;52.380;4.654;2022-12-11T22:15:51;40.33;;;24.80;;
16906;SDS011;8570;52.380;4.654;2022-12-11T22:20:54;36.57;;;23.13;;
16906;SDS011;8570;52.380;4.654;2022-12-11T22:25:57;34.20;;;22.17;;
16906;SDS011;8570;52.380;4.654;2022-12-11T22:30:59;34.77;;;21.73;;
16906;SDS011;8570;52.380;4.654;2022-12-11T22:36:03;34.23;;;20.97;;
16906;SDS011;8570;52.380;4.654;2022-12-11T22:41:08;35.60;;;21.23;;
16906;SDS011;8570;52.380;4.654;2022-12-11T22:46:14;34.93;;;20.97;;
16906;SDS011;8570;52.380;4.654;2022-12-11T22:51:18;35.83;;;21.37;;
16906;SDS011;8570;52.380;4.654;2022-12-11T22:56:20;35.63;;;21.93;;
16906;SDS011;8570;52.380;4.654;2022-12-11T23:01:22;35.10;;;22.07;;
16906;SDS011;8570;52.380;4.654;2022-12-11T23:06:27;32.50;;;21.03;;
16906;SDS011;8570;52.380;4.654;2022-12-11T23:11:31;33.90;;;20.70;;
16906;SDS011;8570;52.380;4.654;2022-12-11T23:16:35;29.73;;;20.33;;
16906;SDS011;8570;52.380;4.654;2022-12-11T23:21:41;36.57;;;19.03;;
16906;SDS011;8570;52.380;4.654;2022-12-11T23:26:43;28.27;;;18.93;;
16906;SDS011;8570;52.380;4.654;2022-12-11T23:31:45;33.47;;;20.13;;
16906;SDS011;8570;52.380;4.654;2022-12-11T23:36:48;28.37;;;19.37;;
16906;SDS011;8570;52.380;4.654;2022-12-11T23:41:50;30.03;;;19.03;;
16906;SDS011;8570;52.380;4.654;2022-12-11T23:46:52;32.73;;;20.07;;
16906;SDS011;8570;52.380;4.654;2022-12-11T23:51:55;30.13;;;19.70;;
16906;SDS011;8570;52.380;4.654;2022-12-11T23:56:57;29.23;;;18.67;;
